Time;durP1;ratioP1;P1;durP2;ratioP2;P2;SDS_P1;SDS_P2;PMS_P1;PMS_P2;Temp;Humidity;BMP_temperature;BMP_pressure;BME280_temperature;BME280_humidity;BME280_pressure;Samples;Min_cycle;Max_cycle;Signal;HPM_P1;HPM_P2
2023/08/21 00:01:37;;;;;;;0.00;0.00;;;;;;;;;;6242559;28;20543;-86
2023/08/21 00:04:37;;;;;;;0.00;0.00;;;;;;;;;;6226256;28;20035;-85
2023/08/21 00:07:37;;;;;;;0.00;0.00;;;;;;;;;;6240307;28;20013;-85
2023/08/21 00:10:38;;;;;;;0.00;0.00;;;;;;;;;;6243257;28;20013;-85
2023/08/21 00:13:38;;;;;;;0.00;0.00;;;;;;;;;;6243658;28;20380;-85
2023/08/21 00:16:38;;;;;;;0.00;0.00;;;;;;;;;;6243408;28;20136;-85
2023/08/21 00:19:38;;;;;;;0.00;0.00;;;;;;;;;;6224550;28;20112;-85
2023/08/21 00:22:38;;;;;;;0.10;0.10;;;;;;;;;;6242823;28;20029;-86
2023/08/21 00:25:39;;;;;;;0.00;0.00;;;;;;;;;;6242768;28;20059;-85
2023/08/21 00:28:39;;;;;;;0.00;0.00;;;;;;;;;;6243282;28;20021;-85
2023/08/21 00:31:39;;;;;;;0.00;0.00;;;;;;;;;;6239130;28;20029;-85
2023/08/21 00:34:39;;;;;;;0.10;0.10;;;;;;;;;;6242986;28;20025;-85
2023/08/21 00:37:39;;;;;;;0.00;0.00;;;;;;;;;;6215909;28;20025;-85
2023/08/21 00:40:40;;;;;;;0.00;0.00;;;;;;;;;;6244481;28;20028;-84
2023/08/21 00:43:40;;;;;;;0.00;0.00;;;;;;;;;;6224211;28;20060;-85
2023/08/21 00:46:40;;;;;;;0.00;0.00;;;;;;;;;;6242004;28;20013;-85
2023/08/21 00:49:40;;;;;;;0.00;0.00;;;;;;;;;;6242385;28;20018;-85
2023/08/21 00:52:43;;;;;;;0.00;0.00;;;;;;;;;;6242178;28;20045;-85
2023/08/21 00:55:43;;;;;;;0.10;0.10;;;;;;;;;;6242166;28;20041;-84
2023/08/21 00:58:43;;;;;;;0.00;0.00;;;;;;;;;;6242190;28;20759;-85
2023/08/21 01:01:44;;;;;;;0.00;0.00;;;;;;;;;;6223490;28;20375;-85
2023/08/21 01:04:44;;;;;;;0.00;0.00;;;;;;;;;;6243030;28;20057;-85
2023/08/21 01:08:04;;;;;;;0.10;0.10;;;;;;;;;;6243020;28;20040;-84
2023/08/21 01:11:18;;;;;;;0.00;0.00;;;;;;;;;;6239470;28;20486;-85
2023/08/21 01:14:33;;;;;;;0.00;0.00;;;;;;;;;;6242187;28;20020;-85
2023/08/21 01:17:34;;;;;;;0.00;0.00;;;;;;;;;;6224182;28;20397;-84
2023/08/21 01:20:35;;;;;;;0.00;0.00;;;;;;;;;;6228739;28;20033;-84
2023/08/21 01:23:35;;;;;;;0.00;0.00;;;;;;;;;;6245646;28;20510;-85
2023/08/21 01:26:36;;;;;;;0.00;0.00;;;;;;;;;;6247034;28;20030;-86
2023/08/21 01:29:36;;;;;;;0.00;0.00;;;;;;;;;;6241903;28;20017;-85
2023/08/21 01:32:37;;;;;;;0.00;0.00;;;;;;;;;;6244351;28;20021;-85
2023/08/21 01:35:37;;;;;;;0.00;0.00;;;;;;;;;;6247072;28;20025;-85
2023/08/21 01:38:38;;;;;;;0.00;0.00;;;;;;;;;;6246444;28;20017;-77
2023/08/21 01:41:38;;;;;;;0.00;0.00;;;;;;;;;;6247890;28;20075;-77
2023/08/21 01:44:38;;;;;;;0.00;0.00;;;;;;;;;;6246125;28;20077;-77
2023/08/21 01:47:38;;;;;;;0.00;0.00;;;;;;;;;;6252036;28;20064;-77
2023/08/21 01:50:38;;;;;;;0.10;0.10;;;;;;;;;;6250490;28;20050;-76
2023/08/21 01:53:39;;;;;;;0.00;0.00;;;;;;;;;;6245695;28;20017;-76
2023/08/21 01:56:39;;;;;;;0.00;0.00;;;;;;;;;;6245099;28;20047;-77
2023/08/21 01:59:40;;;;;;;0.00;0.00;;;;;;;;;;6228218;28;20116;-77
2023/08/21 02:02:40;;;;;;;0.03;0.03;;;;;;;;;;6224069;28;20062;-76
2023/08/21 02:05:41;;;;;;;0.00;0.00;;;;;;;;;;6245574;28;20104;-77
2023/08/21 02:08:42;;;;;;;0.10;0.10;;;;;;;;;;6239948;28;20017;-77
2023/08/21 02:11:42;;;;;;;0.00;0.00;;;;;;;;;;6245024;28;20658;-76
2023/08/21 02:14:42;;;;;;;0.00;0.00;;;;;;;;;;6245354;28;20026;-76
2023/08/21 02:17:42;;;;;;;0.00;0.00;;;;;;;;;;6245868;28;20075;-76
2023/08/21 02:20:43;;;;;;;0.10;0.10;;;;;;;;;;6245157;28;20040;-76
2023/08/21 02:23:43;;;;;;;0.00;0.00;;;;;;;;;;6245134;28;20025;-76
2023/08/21 02:26:45;;;;;;;0.00;0.00;;;;;;;;;;6228540;28;20487;-76
2023/08/21 02:29:45;;;;;;;0.00;0.00;;;;;;;;;;6244524;28;20021;-77
2023/08/21 02:32:46;;;;;;;0.00;0.00;;;;;;;;;;6246325;28;20025;-77
2023/08/21 02:35:46;;;;;;;0.10;0.10;;;;;;;;;;6244602;28;20029;-77
2023/08/21 02:38:46;;;;;;;0.00;0.00;;;;;;;;;;6244835;28;20101;-77
2023/08/21 02:41:46;;;;;;;0.00;0.00;;;;;;;;;;6254628;28;20654;-77
2023/08/21 02:44:46;;;;;;;0.00;0.00;;;;;;;;;;6243107;28;20037;-77
2023/08/21 02:47:47;;;;;;;0.00;0.00;;;;;;;;;;6244825;28;20057;-78
2023/08/21 02:50:48;;;;;;;0.10;0.10;;;;;;;;;;6225444;28;20047;-78
2023/08/21 02:53:48;;;;;;;0.00;0.00;;;;;;;;;;6201857;28;20037;-77
2023/08/21 02:56:48;;;;;;;0.00;0.00;;;;;;;;;;6215375;28;20064;-78
2023/08/21 02:59:48;;;;;;;0.00;0.00;;;;;;;;;;6219729;28;20029;-78
2023/08/21 03:02:50;;;;;;;0.05;0.05;;;;;;;;;;6221760;28;20100;-77
2023/08/21 03:05:50;;;;;;;0.00;0.00;;;;;;;;;;6220061;28;20102;-76
2023/08/21 03:08:50;;;;;;;0.10;0.10;;;;;;;;;;6202046;28;20029;-76
2023/08/21 03:11:50;;;;;;;0.00;0.00;;;;;;;;;;6219784;28;20021;-76
2023/08/21 03:14:50;;;;;;;0.10;0.10;;;;;;;;;;6202493;28;20022;-76
2023/08/21 03:17:51;;;;;;;0.10;0.10;;;;;;;;;;6219591;28;20076;-77
2023/08/21 03:20:51;;;;;;;0.00;0.00;;;;;;;;;;6219316;28;20480;-77
2023/08/21 03:23:53;;;;;;;0.00;0.00;;;;;;;;;;6218919;28;20033;-77
2023/08/21 03:26:53;;;;;;;0.10;0.10;;;;;;;;;;6218051;28;20033;-77
2023/08/21 03:29:54;;;;;;;0.00;0.00;;;;;;;;;;6219530;28;20022;-76
2023/08/21 03:32:54;;;;;;;0.00;0.00;;;;;;;;;;6219237;28;20038;-76
2023/08/21 03:35:54;;;;;;;0.00;0.00;;;;;;;;;;6201313;28;20044;-76
2023/08/21 03:38:55;;;;;;;0.00;0.00;;;;;;;;;;6216097;28;20053;-76
2023/08/21 03:41:55;;;;;;;0.00;0.00;;;;;;;;;;6200609;28;20030;-76
2023/08/21 03:44:55;;;;;;;0.00;0.00;;;;;;;;;;6218553;28;20088;-76
2023/08/21 03:47:55;;;;;;;0.00;0.00;;;;;;;;;;6218307;28;20109;-76
2023/08/21 03:50:55;;;;;;;0.00;0.00;;;;;;;;;;6206069;28;20057;-76
2023/08/21 03:53:56;;;;;;;0.00;0.00;;;;;;;;;;6243114;28;20408;-76
2023/08/21 03:56:56;;;;;;;0.00;0.00;;;;;;;;;;6242796;28;20120;-76
2023/08/21 03:59:56;;;;;;;0.00;0.00;;;;;;;;;;6217838;28;20033;-77
2023/08/21 04:02:57;;;;;;;0.00;0.00;;;;;;;;;;6242449;28;20039;-77
2023/08/21 04:05:58;;;;;;;0.10;0.10;;;;;;;;;;6241725;28;20041;-77
2023/08/21 04:08:58;;;;;;;0.10;0.10;;;;;;;;;;6251337;28;20021;-77
2023/08/21 04:11:59;;;;;;;0.10;0.10;;;;;;;;;;6244649;28;20060;-77
2023/08/21 04:14:59;;;;;;;0.00;0.00;;;;;;;;;;6247806;28;20438;-77
2023/08/21 04:17:59;;;;;;;0.00;0.00;;;;;;;;;;6244288;28;20029;-76
2023/08/21 04:21:00;;;;;;;0.10;0.10;;;;;;;;;;6241985;28;20464;-76
2023/08/21 04:24:00;;;;;;;0.10;0.10;;;;;;;;;;6245194;28;20072;-76
2023/08/21 04:27:00;;;;;;;0.00;0.00;;;;;;;;;;6244767;28;20061;-76
2023/08/21 04:30:00;;;;;;;0.00;0.00;;;;;;;;;;6241757;28;20098;-76
2023/08/21 04:33:01;;;;;;;0.10;0.10;;;;;;;;;;6238067;28;20030;-76
2023/08/21 04:36:01;;;;;;;0.00;0.00;;;;;;;;;;6224377;28;20636;-77
2023/08/21 04:39:01;;;;;;;0.00;0.00;;;;;;;;;;6249205;28;20064;-77
2023/08/21 04:42:01;;;;;;;0.00;0.00;;;;;;;;;;6244869;28;20022;-77
2023/08/21 04:45:04;;;;;;;0.10;0.10;;;;;;;;;;6242038;28;20024;-77
2023/08/21 04:48:07;;;;;;;0.00;0.00;;;;;;;;;;6241972;28;20420;-77
2023/08/21 04:51:07;;;;;;;0.00;0.00;;;;;;;;;;6236846;28;20052;-77
2023/08/21 04:54:07;;;;;;;0.10;0.10;;;;;;;;;;6242508;28;20018;-77
2023/08/21 04:57:07;;;;;;;0.10;0.10;;;;;;;;;;6245364;28;20466;-77
2023/08/21 05:00:09;;;;;;;0.00;0.00;;;;;;;;;;6245268;28;20440;-77
2023/08/21 05:03:10;;;;;;;;;;;;;;;;;;6242330;28;20064;-77
2023/08/21 05:06:10;;;;;;;0.00;0.00;;;;;;;;;;6243796;28;19909;-77
2023/08/21 05:09:11;;;;;;;0.00;0.00;;;;;;;;;;6246338;28;20605;-77
2023/08/21 05:12:11;;;;;;;0.00;0.00;;;;;;;;;;6247412;28;20070;-77
2023/08/21 05:15:13;;;;;;;0.00;0.00;;;;;;;;;;6250545;28;20582;-77
2023/08/21 05:18:14;;;;;;;0.00;0.00;;;;;;;;;;6228719;28;20415;-84
2023/08/21 05:21:14;;;;;;;0.00;0.00;;;;;;;;;;6251493;28;20028;-85
2023/08/21 05:24:14;;;;;;;0.00;0.00;;;;;;;;;;6247200;28;20022;-85
2023/08/21 05:27:14;;;;;;;0.00;0.00;;;;;;;;;;6228513;28;20029;-85
2023/08/21 05:30:15;;;;;;;0.00;0.00;;;;;;;;;;6228913;28;20013;-85
2023/08/21 05:33:15;;;;;;;0.00;0.00;;;;;;;;;;6250983;28;20020;-85
2023/08/21 05:36:15;;;;;;;0.00;0.00;;;;;;;;;;6247334;28;20009;-85
2023/08/21 05:39:15;;;;;;;0.00;0.00;;;;;;;;;;6257001;28;20476;-85
2023/08/21 05:42:15;;;;;;;0.00;0.00;;;;;;;;;;6246774;28;20047;-85
2023/08/21 05:45:16;;;;;;;0.00;0.00;;;;;;;;;;6262067;28;20029;-85
2023/08/21 05:48:19;;;;;;;0.00;0.00;;;;;;;;;;6246874;28;20025;-85
2023/08/21 05:51:19;;;;;;;0.00;0.00;;;;;;;;;;6226704;28;20045;-85
2023/08/21 05:54:19;;;;;;;0.00;0.00;;;;;;;;;;6246240;28;20025;-85
2023/08/21 05:57:19;;;;;;;0.00;0.00;;;;;;;;;;6245328;28;20040;-85
2023/08/21 06:00:20;;;;;;;0.00;0.00;;;;;;;;;;6247523;28;20104;-85
2023/08/21 06:03:20;;;;;;;0.00;0.00;;;;;;;;;;6242760;28;20469;-85
2023/08/21 06:06:20;;;;;;;0.00;0.00;;;;;;;;;;6228596;28;20033;-85
2023/08/21 06:09:20;;;;;;;0.00;0.00;;;;;;;;;;6255629;28;20513;-86
2023/08/21 06:12:21;;;;;;;0.00;0.00;;;;;;;;;;6250203;28;20036;-86
2023/08/21 06:15:21;;;;;;;0.00;0.00;;;;;;;;;;6248425;28;20014;-86
2023/08/21 06:18:21;;;;;;;0.00;0.00;;;;;;;;;;6277066;28;20024;-86
2023/08/21 06:21:21;;;;;;;0.00;0.00;;;;;;;;;;6277796;28;20025;-86
2023/08/21 06:24:22;;;;;;;0.00;0.00;;;;;;;;;;6276195;28;20021;-85
2023/08/21 06:27:22;;;;;;;0.00;0.00;;;;;;;;;;6253801;28;20113;-85
2023/08/21 06:30:22;;;;;;;0.00;0.00;;;;;;;;;;6244605;28;20104;-86
2023/08/21 06:33:23;;;;;;;0.00;0.00;;;;;;;;;;6245637;28;20021;-86
2023/08/21 06:36:23;;;;;;;0.00;0.00;;;;;;;;;;6240062;28;20045;-86
2023/08/21 06:39:24;;;;;;;0.00;0.00;;;;;;;;;;6224616;28;20044;-86
2023/08/21 06:42:24;;;;;;;0.00;0.00;;;;;;;;;;6245665;28;20407;-86
2023/08/21 06:45:24;;;;;;;0.00;0.00;;;;;;;;;;6242061;28;20027;-86
2023/08/21 06:48:25;;;;;;;0.00;0.00;;;;;;;;;;6246683;28;20053;-85
2023/08/21 06:51:25;;;;;;;0.00;0.00;;;;;;;;;;6244914;28;20045;-86
2023/08/21 06:54:26;;;;;;;0.00;0.00;;;;;;;;;;6247395;28;20025;-86
2023/08/21 06:57:26;;;;;;;0.00;0.00;;;;;;;;;;6242610;28;20033;-87
2023/08/21 07:00:26;;;;;;;0.00;0.00;;;;;;;;;;6244163;28;20045;-86
2023/08/21 07:03:26;;;;;;;0.00;0.00;;;;;;;;;;6231177;28;20034;-85
2023/08/21 07:06:30;;;;;;;0.00;0.00;;;;;;;;;;6244617;28;20033;-86
2023/08/21 07:09:30;;;;;;;0.00;0.00;;;;;;;;;;6241886;28;20088;-86
2023/08/21 07:12:31;;;;;;;0.00;0.00;;;;;;;;;;6243854;28;20030;-87
2023/08/21 07:15:31;;;;;;;0.00;0.00;;;;;;;;;;6247310;28;20037;-87
2023/08/21 07:18:33;;;;;;;0.00;0.00;;;;;;;;;;6242418;28;20029;-86
2023/08/21 07:21:35;;;;;;;0.00;0.00;;;;;;;;;;6226504;28;20021;-87
2023/08/21 07:24:35;;;;;;;0.00;0.00;;;;;;;;;;6241767;28;20049;-87
2023/08/21 07:27:35;;;;;;;0.00;0.00;;;;;;;;;;6243850;28;20106;-86
2023/08/21 07:30:36;;;;;;;0.00;0.00;;;;;;;;;;6238492;28;20809;-86
2023/08/21 07:33:36;;;;;;;0.00;0.00;;;;;;;;;;6243011;28;20017;-85
2023/08/21 07:36:37;;;;;;;0.00;0.00;;;;;;;;;;6246915;28;20072;-85
2023/08/21 07:39:37;;;;;;;0.00;0.00;;;;;;;;;;6242978;28;20056;-85
2023/08/21 07:42:37;;;;;;;0.00;0.00;;;;;;;;;;6243562;28;20028;-85
2023/08/21 07:45:38;;;;;;;0.00;0.00;;;;;;;;;;6241127;28;20043;-85
2023/08/21 07:48:38;;;;;;;0.00;0.00;;;;;;;;;;6225639;28;20033;-86
2023/08/21 07:51:38;;;;;;;0.00;0.00;;;;;;;;;;6242912;28;20033;-86
2023/08/21 07:54:38;;;;;;;0.00;0.00;;;;;;;;;;6242725;28;20495;-86
2023/08/21 07:57:39;;;;;;;0.00;0.00;;;;;;;;;;6241974;28;20040;-85
2023/08/21 08:00:39;;;;;;;0.00;0.00;;;;;;;;;;6224637;28;20076;-85
2023/08/21 08:03:39;;;;;;;0.00;0.00;;;;;;;;;;6242629;28;20411;-86
2023/08/21 08:06:39;;;;;;;0.00;0.00;;;;;;;;;;6246335;28;20020;-86
2023/08/21 08:09:41;;;;;;;0.00;0.00;;;;;;;;;;6244610;28;20488;-86
2023/08/21 08:12:42;;;;;;;0.00;0.00;;;;;;;;;;6240731;28;20097;-86
2023/08/21 08:15:42;;;;;;;0.00;0.00;;;;;;;;;;6221493;28;20025;-86
2023/08/21 08:18:42;;;;;;;0.00;0.00;;;;;;;;;;6251317;28;20029;-86
2023/08/21 08:21:43;;;;;;;0.00;0.00;;;;;;;;;;6250478;28;20049;-86
2023/08/21 08:24:43;;;;;;;0.00;0.00;;;;;;;;;;6260775;28;20029;-86
2023/08/21 08:27:44;;;;;;;0.00;0.00;;;;;;;;;;6251139;28;21562;-86
2023/08/21 08:30:44;;;;;;;0.00;0.00;;;;;;;;;;6252722;28;20503;-86
2023/08/21 08:33:45;;;;;;;0.00;0.00;;;;;;;;;;6257966;28;20034;-84
2023/08/21 08:36:45;;;;;;;0.00;0.00;;;;;;;;;;6254529;28;20472;-85
2023/08/21 08:39:48;;;;;;;0.00;0.00;;;;;;;;;;6256417;28;20025;-86
2023/08/21 08:42:48;;;;;;;0.00;0.00;;;;;;;;;;6254646;28;20025;-85
2023/08/21 08:45:49;;;;;;;0.00;0.00;;;;;;;;;;6253243;28;20048;-87
2023/08/21 08:48:49;;;;;;;0.00;0.00;;;;;;;;;;6243233;28;20112;-87
2023/08/21 08:51:53;;;;;;;0.00;0.00;;;;;;;;;;6225516;28;20488;-87
2023/08/21 08:54:55;;;;;;;0.00;0.00;;;;;;;;;;6242981;28;20025;-85
2023/08/21 08:57:55;;;;;;;0.00;0.00;;;;;;;;;;6238613;28;20556;-87
2023/08/21 09:00:56;;;;;;;0.00;0.00;;;;;;;;;;6245752;28;20026;-85
2023/08/21 09:03:56;;;;;;;0.00;0.00;;;;;;;;;;6226683;28;20033;-87
2023/08/21 09:07:05;;;;;;;0.00;0.00;;;;;;;;;;6244843;28;20507;-86
2023/08/21 09:10:12;;;;;;;0.00;0.00;;;;;;;;;;6238315;28;20017;-84
2023/08/21 09:13:13;;;;;;;0.00;0.00;;;;;;;;;;6242873;28;20022;-85
2023/08/21 09:16:14;;;;;;;;;;;;;;;;;;6240674;28;20115;-85
2023/08/21 09:19:20;;;;;;;0.00;0.00;;;;;;;;;;6242404;28;20043;-85
2023/08/21 09:22:21;;;;;;;0.00;0.00;;;;;;;;;;6236812;28;20392;-84
2023/08/21 09:25:21;;;;;;;;;;;;;;;;;;6242739;28;20049;-84
2023/08/21 09:28:22;;;;;;;0.00;0.00;;;;;;;;;;6219704;28;19964;-86
2023/08/21 09:31:33;;;;;;;0.00;0.00;;;;;;;;;;6230868;28;20469;-84
2023/08/21 09:34:33;;;;;;;;;;;;;;;;;;6237741;28;20029;-86
2023/08/21 09:37:33;;;;;;;0.00;0.00;;;;;;;;;;6241030;28;19909;-84
2023/08/21 09:40:34;;;;;;;0.00;0.00;;;;;;;;;;6240627;28;20027;-84
2023/08/21 09:43:40;;;;;;;0.00;0.00;;;;;;;;;;6241914;28;20082;-84
2023/08/21 09:46:42;;;;;;;0.00;0.00;;;;;;;;;;6242847;28;20440;-84
2023/08/21 09:49:42;;;;;;;0.00;0.00;;;;;;;;;;6241896;28;20029;-84
2023/08/21 09:52:44;;;;;;;0.00;0.00;;;;;;;;;;6241949;28;20049;-84
2023/08/21 09:55:45;;;;;;;0.00;0.00;;;;;;;;;;6239074;28;20017;-86
2023/08/21 09:58:47;;;;;;;0.00;0.00;;;;;;;;;;6234891;28;20499;-85
2023/08/21 10:01:49;;;;;;;0.00;0.00;;;;;;;;;;6225153;28;20037;-85
2023/08/21 10:04:50;;;;;;;0.00;0.00;;;;;;;;;;6245609;28;20589;-85
2023/08/21 10:07:50;;;;;;;0.00;0.00;;;;;;;;;;6241597;28;20100;-85
2023/08/21 10:10:50;;;;;;;0.00;0.00;;;;;;;;;;6245318;28;20030;-85
2023/08/21 10:13:51;;;;;;;0.00;0.00;;;;;;;;;;6245454;28;20470;-85
2023/08/21 10:16:52;;;;;;;0.00;0.00;;;;;;;;;;6245544;28;20026;-85
2023/08/21 10:19:53;;;;;;;0.00;0.00;;;;;;;;;;6244595;28;20391;-85
2023/08/21 10:22:56;;;;;;;0.00;0.00;;;;;;;;;;6244725;28;20033;-85
2023/08/21 10:25:58;;;;;;;0.00;0.00;;;;;;;;;;6244567;28;20392;-85
2023/08/21 10:29:01;;;;;;;0.00;0.00;;;;;;;;;;6244958;28;20017;-85
2023/08/21 10:32:02;;;;;;;0.00;0.00;;;;;;;;;;6232067;28;20040;-85
2023/08/21 10:35:03;;;;;;;0.00;0.00;;;;;;;;;;6239366;28;20018;-85
2023/08/21 10:38:10;;;;;;;0.00;0.00;;;;;;;;;;6244507;28;20035;-86
2023/08/21 10:41:10;;;;;;;0.00;0.00;;;;;;;;;;6244739;28;20044;-86
2023/08/21 10:44:11;;;;;;;0.00;0.00;;;;;;;;;;6246933;28;20594;-86
2023/08/21 10:47:15;;;;;;;0.00;0.00;;;;;;;;;;6244887;28;20057;-85
2023/08/21 10:50:15;;;;;;;0.00;0.00;;;;;;;;;;6247740;28;20017;-85
2023/08/21 10:53:15;;;;;;;0.00;0.00;;;;;;;;;;6240531;28;20057;-85
2023/08/21 10:56:16;;;;;;;0.00;0.00;;;;;;;;;;6248931;28;20274;-86
2023/08/21 10:59:16;;;;;;;0.00;0.00;;;;;;;;;;6238320;28;20315;-86
2023/08/21 11:02:16;;;;;;;0.00;0.00;;;;;;;;;;6227104;28;20021;-86
2023/08/21 11:05:16;;;;;;;0.00;0.00;;;;;;;;;;6243583;28;20484;-85
2023/08/21 11:08:17;;;;;;;0.00;0.00;;;;;;;;;;6246868;28;20037;-85
2023/08/21 11:11:18;;;;;;;0.00;0.00;;;;;;;;;;6243512;28;20503;-85
2023/08/21 11:14:24;;;;;;;0.00;0.00;;;;;;;;;;6243519;28;20121;-86
2023/08/21 11:17:25;;;;;;;0.00;0.00;;;;;;;;;;6243505;28;20060;-85
2023/08/21 11:20:31;;;;;;;0.00;0.00;;;;;;;;;;6243422;28;20025;-86
2023/08/21 11:23:32;;;;;;;0.00;0.00;;;;;;;;;;6249031;28;20112;-85
2023/08/21 11:26:32;;;;;;;0.00;0.00;;;;;;;;;;6227037;28;20383;-85
2023/08/21 11:29:43;;;;;;;0.00;0.00;;;;;;;;;;6243655;28;20032;-86
2023/08/21 11:32:43;;;;;;;0.00;0.00;;;;;;;;;;6236664;28;20026;-86
2023/08/21 11:35:44;;;;;;;0.00;0.00;;;;;;;;;;6241091;28;20060;-86
2023/08/21 11:38:44;;;;;;;;;;;;;;;;;;6213577;28;20113;-86
2023/08/21 11:41:56;;;;;;;0.00;0.00;;;;;;;;;;6242741;28;19963;-87
2023/08/21 11:44:57;;;;;;;0.00;0.00;;;;;;;;;;6239150;28;20032;-87
2023/08/21 11:47:57;;;;;;;0.00;0.00;;;;;;;;;;6243447;28;20029;-86
2023/08/21 11:50:58;;;;;;;0.00;0.00;;;;;;;;;;6242151;28;20048;-86
2023/08/21 11:53:58;;;;;;;0.00;0.00;;;;;;;;;;6242426;28;20041;-86
2023/08/21 11:56:58;;;;;;;;;;;;;;;;;;6241564;28;20611;-86
2023/08/21 11:59:59;;;;;;;0.00;0.00;;;;;;;;;;6244951;28;20302;-86
2023/08/21 12:02:59;;;;;;;;;;;;;;;;;;6233001;28;20021;-85
2023/08/21 12:06:03;;;;;;;0.00;0.00;;;;;;;;;;6241195;28;19924;-86
2023/08/21 12:09:04;;;;;;;0.00;0.00;;;;;;;;;;6238948;28;20135;-86
2023/08/21 12:12:05;;;;;;;0.00;0.00;;;;;;;;;;6241972;28;20040;-85
2023/08/21 12:15:05;;;;;;;0.00;0.00;;;;;;;;;;6226976;28;20045;-84
2023/08/21 12:18:06;;;;;;;0.00;0.00;;;;;;;;;;6250789;28;20033;-85
2023/08/21 12:21:07;;;;;;;0.00;0.00;;;;;;;;;;6240080;28;20036;-85
2023/08/21 12:24:08;;;;;;;0.00;0.00;;;;;;;;;;6240815;28;20039;-86
2023/08/21 12:27:09;;;;;;;0.00;0.00;;;;;;;;;;6238022;28;20029;-85
2023/08/21 12:30:09;;;;;;;0.00;0.00;;;;;;;;;;6242187;28;20029;-86
2023/08/21 12:33:09;;;;;;;0.00;0.00;;;;;;;;;;6235932;28;20400;-85
2023/08/21 12:36:09;;;;;;;0.00;0.00;;;;;;;;;;6241801;28;20017;-86
2023/08/21 12:39:11;;;;;;;0.00;0.00;;;;;;;;;;6241908;28;20480;-85
2023/08/21 12:42:11;;;;;;;0.00;0.00;;;;;;;;;;6242187;28;20053;-85
2023/08/21 12:45:11;;;;;;;0.00;0.00;;;;;;;;;;6241933;28;20041;-85
2023/08/21 12:48:12;;;;;;;0.00;0.00;;;;;;;;;;6240215;28;20021;-85
2023/08/21 12:51:12;;;;;;;0.00;0.00;;;;;;;;;;6240914;28;20064;-85
2023/08/21 12:54:12;;;;;;;0.00;0.00;;;;;;;;;;6241251;28;20021;-85
2023/08/21 12:57:13;;;;;;;0.00;0.00;;;;;;;;;;6225876;28;20025;-85
2023/08/21 13:00:14;;;;;;;0.00;0.00;;;;;;;;;;6236118;28;20024;-86
2023/08/21 13:03:15;;;;;;;0.00;0.00;;;;;;;;;;6224351;28;20061;-84
2023/08/21 13:06:15;;;;;;;0.00;0.00;;;;;;;;;;6241154;28;20021;-85
2023/08/21 13:09:16;;;;;;;0.00;0.00;;;;;;;;;;6240896;28;20022;-86
2023/08/21 13:12:16;;;;;;;0.00;0.00;;;;;;;;;;6241928;28;20032;-86
2023/08/21 13:15:16;;;;;;;0.00;0.00;;;;;;;;;;6223945;28;20025;-86
2023/08/21 13:18:17;;;;;;;0.00;0.00;;;;;;;;;;6241394;28;20566;-85
2023/08/21 13:21:17;;;;;;;0.00;0.00;;;;;;;;;;6242146;28;20044;-85
2023/08/21 13:24:17;;;;;;;0.00;0.00;;;;;;;;;;6223730;28;20451;-85
2023/08/21 13:27:18;;;;;;;0.00;0.00;;;;;;;;;;6243307;28;20032;-85
2023/08/21 13:30:20;;;;;;;0.00;0.00;;;;;;;;;;6246394;28;20032;-84
2023/08/21 13:33:20;;;;;;;0.00;0.00;;;;;;;;;;6216683;28;20030;-84
2023/08/21 13:36:21;;;;;;;0.00;0.00;;;;;;;;;;6247078;28;20395;-84
2023/08/21 13:39:22;;;;;;;0.00;0.00;;;;;;;;;;6247266;28;20045;-85
2023/08/21 13:42:22;;;;;;;0.00;0.00;;;;;;;;;;6248164;28;20057;-85
2023/08/21 13:45:22;;;;;;;0.00;0.00;;;;;;;;;;6245996;28;20128;-84
2023/08/21 13:48:23;;;;;;;0.00;0.00;;;;;;;;;;6247480;28;20044;-84
2023/08/21 13:51:23;;;;;;;0.00;0.00;;;;;;;;;;6250112;28;20061;-84
2023/08/21 13:54:23;;;;;;;0.00;0.00;;;;;;;;;;6245582;28;20468;-84
2023/08/21 13:57:23;;;;;;;0.00;0.00;;;;;;;;;;6246086;28;20028;-84
2023/08/21 14:00:23;;;;;;;0.00;0.00;;;;;;;;;;6228466;28;20502;-84
2023/08/21 14:03:24;;;;;;;0.00;0.00;;;;;;;;;;6245772;28;20029;-84
2023/08/21 14:06:24;;;;;;;0.00;0.00;;;;;;;;;;6248531;28;20013;-84
2023/08/21 14:09:25;;;;;;;0.00;0.00;;;;;;;;;;6246613;28;20053;-85
2023/08/21 14:12:25;;;;;;;0.00;0.00;;;;;;;;;;6246272;28;20478;-85
2023/08/21 14:15:25;;;;;;;0.00;0.00;;;;;;;;;;6243586;28;20022;-85
2023/08/21 14:18:25;;;;;;;0.00;0.00;;;;;;;;;;6251912;28;20490;-86
2023/08/21 14:21:25;;;;;;;0.00;0.00;;;;;;;;;;6246071;28;20021;-84
2023/08/21 14:24:26;;;;;;;0.00;0.00;;;;;;;;;;6228371;28;20502;-85
2023/08/21 14:27:26;;;;;;;0.00;0.00;;;;;;;;;;6250496;28;20044;-86
2023/08/21 14:30:26;;;;;;;0.00;0.00;;;;;;;;;;6240204;28;20022;-86
2023/08/21 14:33:27;;;;;;;0.00;0.00;;;;;;;;;;6241292;28;20395;-85
2023/08/21 14:36:27;;;;;;;0.00;0.00;;;;;;;;;;6225101;28;20080;-85
2023/08/21 14:39:28;;;;;;;0.00;0.00;;;;;;;;;;6243654;28;20022;-85
2023/08/21 14:42:28;;;;;;;0.00;0.00;;;;;;;;;;6227023;28;20081;-85
2023/08/21 14:45:28;;;;;;;0.00;0.00;;;;;;;;;;6244502;28;20070;-86
2023/08/21 14:48:29;;;;;;;0.00;0.00;;;;;;;;;;6244375;28;20021;-85
2023/08/21 14:51:29;;;;;;;0.00;0.00;;;;;;;;;;6226162;28;20048;-85
2023/08/21 14:54:29;;;;;;;0.00;0.00;;;;;;;;;;6223204;28;20049;-85
2023/08/21 14:57:30;;;;;;;0.00;0.00;;;;;;;;;;6241851;28;20013;-85
2023/08/21 15:00:30;;;;;;;0.00;0.00;;;;;;;;;;6240940;28;20547;-85
2023/08/21 15:03:30;;;;;;;0.00;0.00;;;;;;;;;;6234388;28;20037;-85
2023/08/21 15:06:30;;;;;;;0.00;0.00;;;;;;;;;;6236161;28;20264;-86
2023/08/21 15:09:31;;;;;;;0.00;0.00;;;;;;;;;;6239917;28;20418;-85
2023/08/21 15:12:31;;;;;;;0.00;0.00;;;;;;;;;;6244428;28;20029;-85
2023/08/21 15:15:31;;;;;;;0.00;0.00;;;;;;;;;;6243214;28;20025;-86
2023/08/21 15:18:31;;;;;;;0.00;0.00;;;;;;;;;;6223139;28;20026;-85
2023/08/21 15:21:31;;;;;;;0.00;0.00;;;;;;;;;;6243343;28;20063;-86
2023/08/21 15:24:31;;;;;;;0.00;0.00;;;;;;;;;;6243473;28;20022;-85
2023/08/21 15:27:32;;;;;;;0.00;0.00;;;;;;;;;;6242215;28;20030;-86
2023/08/21 15:30:32;;;;;;;0.00;0.00;;;;;;;;;;6241829;28;20072;-86
2023/08/21 15:33:33;;;;;;;0.00;0.00;;;;;;;;;;6226867;28;20107;-86
2023/08/21 15:36:33;;;;;;;0.00;0.00;;;;;;;;;;6242835;28;20292;-86
2023/08/21 15:39:33;;;;;;;0.00;0.00;;;;;;;;;;6242713;28;20494;-86
2023/08/21 15:42:33;;;;;;;0.00;0.00;;;;;;;;;;6223710;28;20264;-86
2023/08/21 15:45:34;;;;;;;0.00;0.00;;;;;;;;;;6237189;28;20064;-86
2023/08/21 15:48:34;;;;;;;0.00;0.00;;;;;;;;;;6247123;28;20107;-77
2023/08/21 15:51:34;;;;;;;0.00;0.00;;;;;;;;;;6223065;28;20045;-77
2023/08/21 15:54:34;;;;;;;0.00;0.00;;;;;;;;;;6223108;28;20025;-77
2023/08/21 15:57:34;;;;;;;0.00;0.00;;;;;;;;;;6223791;28;20300;-76
2023/08/21 16:00:35;;;;;;;0.00;0.00;;;;;;;;;;6240383;28;20391;-77
2023/08/21 16:03:36;;;;;;;0.00;0.00;;;;;;;;;;6233020;28;20155;-77
2023/08/21 16:06:36;;;;;;;0.00;0.00;;;;;;;;;;6242024;28;20395;-77
2023/08/21 16:09:36;;;;;;;0.00;0.00;;;;;;;;;;6241472;28;20030;-77
2023/08/21 16:12:36;;;;;;;0.00;0.00;;;;;;;;;;6242213;28;20093;-77
2023/08/21 16:15:36;;;;;;;0.00;0.00;;;;;;;;;;6236665;28;20032;-76
2023/08/21 16:18:37;;;;;;;0.00;0.00;;;;;;;;;;6237956;28;20029;-75
2023/08/21 16:21:37;;;;;;;0.00;0.00;;;;;;;;;;6223724;28;20073;-75
2023/08/21 16:24:39;;;;;;;0.00;0.00;;;;;;;;;;6237146;28;20111;-76
2023/08/21 16:27:40;;;;;;;0.00;0.00;;;;;;;;;;6241894;28;20484;-76
2023/08/21 16:30:40;;;;;;;0.00;0.00;;;;;;;;;;6243546;28;20025;-76
2023/08/21 16:33:40;;;;;;;0.00;0.00;;;;;;;;;;6233321;28;20314;-75
2023/08/21 16:36:40;;;;;;;0.00;0.00;;;;;;;;;;6241065;28;20468;-76
2023/08/21 16:39:40;;;;;;;0.00;0.00;;;;;;;;;;6240274;28;20028;-75
2023/08/21 16:42:41;;;;;;;0.00;0.00;;;;;;;;;;6223255;28;20017;-75
2023/08/21 16:45:41;;;;;;;0.00;0.00;;;;;;;;;;6241838;28;20526;-75
2023/08/21 16:48:42;;;;;;;0.00;0.00;;;;;;;;;;6223572;28;20029;-75
2023/08/21 16:51:42;;;;;;;0.00;0.00;;;;;;;;;;6240871;28;20123;-75
2023/08/21 16:54:43;;;;;;;0.00;0.00;;;;;;;;;;6240980;28;20021;-76
2023/08/21 16:57:43;;;;;;;0.00;0.00;;;;;;;;;;6247414;28;20033;-85
2023/08/21 17:00:44;;;;;;;;;;;;;;;;;;6258318;28;20029;-86
2023/08/21 17:03:44;;;;;;;0.00;0.00;;;;;;;;;;6258028;28;19916;-85
2023/08/21 17:06:44;;;;;;;;;;;;;;;;;;6248854;28;20018;-86
2023/08/21 17:09:45;;;;;;;0.00;0.00;;;;;;;;;;6250695;28;19917;-85
2023/08/21 17:12:45;;;;;;;0.00;0.00;;;;;;;;;;6247218;28;20014;-85
2023/08/21 17:15:47;;;;;;;;;;;;;;;;;;6226851;28;20575;-86
2023/08/21 17:18:48;;;;;;;0.00;0.00;;;;;;;;;;6247184;28;19920;-85
2023/08/21 17:21:48;;;;;;;;;;;;;;;;;;6240500;28;20104;-86
2023/08/21 17:24:48;;;;;;;0.00;0.00;;;;;;;;;;6245306;28;20318;-85
2023/08/21 17:27:48;;;;;;;;;;;;;;;;;;6246216;28;20406;-86
2023/08/21 17:30:49;;;;;;;0.00;0.00;;;;;;;;;;6246559;28;20003;-86
2023/08/21 17:33:49;;;;;;;;;;;;;;;;;;6245965;28;20103;-85
2023/08/21 17:36:52;;;;;;;0.00;0.00;;;;;;;;;;6227641;28;19971;-86
2023/08/21 17:39:52;;;;;;;0.00;0.00;;;;;;;;;;6246078;28;20021;-86
2023/08/21 17:42:52;;;;;;;0.00;0.00;;;;;;;;;;6247964;28;20025;-85
2023/08/21 17:45:52;;;;;;;0.00;0.00;;;;;;;;;;6246822;28;20480;-85
2023/08/21 17:48:52;;;;;;;0.00;0.00;;;;;;;;;;6242174;28;20037;-86
2023/08/21 17:51:53;;;;;;;0.00;0.00;;;;;;;;;;6248525;28;20567;-85
2023/08/21 17:54:53;;;;;;;0.00;0.00;;;;;;;;;;6241257;28;20033;-85
2023/08/21 17:57:57;;;;;;;0.00;0.00;;;;;;;;;;6241821;28;20026;-86
2023/08/21 18:00:57;;;;;;;0.00;0.00;;;;;;;;;;6246937;28;20029;-85
2023/08/21 18:03:57;;;;;;;0.00;0.00;;;;;;;;;;6229544;28;20132;-86
2023/08/21 18:06:58;;;;;;;0.00;0.00;;;;;;;;;;6236977;28;20037;-85
2023/08/21 18:09:58;;;;;;;0.00;0.00;;;;;;;;;;6241439;28;20095;-85